sensor_id;sensor_type;location;lat;lon;timestamp;pressure;altitude;pressure_sealevel;temperature;humidity
5679;BME280;2862;52.560;13.566;2023-08-24T00:05:57;100999.97;;;20.87;65.79
5679;BME280;2862;52.560;13.566;2023-08-24T00:16:02;101000.53;;;20.82;65.29
5679;BME280;2862;52.560;13.566;2023-08-24T00:26:06;100990.41;;;20.61;65.56
5679;BME280;2862;52.560;13.566;2023-08-24T00:36:10;100986.16;;;20.44;65.90
5679;BME280;2862;52.560;13.566;2023-08-24T00:46:14;100985.00;;;20.24;67.39
5679;BME280;2862;52.560;13.566;2023-08-24T00:56:18;100995.72;;;20.02;69.55
5679;BME280;2862;52.560;13.566;2023-08-24T01:06:26;100984.59;;;19.74;70.81
5679;BME280;2862;52.560;13.566;2023-08-24T01:16:31;100974.91;;;19.72;70.73
5679;BME280;2862;52.560;13.566;2023-08-24T01:26:40;100972.28;;;19.86;71.11
5679;BME280;2862;52.560;13.566;2023-08-24T01:36:44;100969.31;;;19.96;71.27
5679;BME280;2862;52.560;13.566;2023-08-24T01:46:51;100976.97;;;19.93;71.34
5679;BME280;2862;52.560;13.566;2023-08-24T01:56:55;100976.47;;;19.89;73.16
5679;BME280;2862;52.560;13.566;2023-08-24T02:07:00;100967.25;;;19.98;71.52
5679;BME280;2862;52.560;13.566;2023-08-24T02:17:02;100958.78;;;20.16;71.15
5679;BME280;2862;52.560;13.566;2023-08-24T02:27:07;100957.66;;;20.25;71.52
5679;BME280;2862;52.560;13.566;2023-08-24T02:37:10;100967.78;;;20.31;72.08
5679;BME280;2862;52.560;13.566;2023-08-24T02:47:17;100964.47;;;20.59;71.47
5679;BME280;2862;52.560;13.566;2023-08-24T02:57:21;100953.56;;;20.44;72.69
5679;BME280;2862;52.560;13.566;2023-08-24T03:07:25;100952.06;;;20.41;73.25
5679;BME280;2862;52.560;13.566;2023-08-24T03:17:28;100956.06;;;20.16;75.08
5679;BME280;2862;52.560;13.566;2023-08-24T03:27:32;100950.53;;;20.24;74.80
5679;BME280;2862;52.560;13.566;2023-08-24T03:37:35;100952.69;;;20.29;75.59
5679;BME280;2862;52.560;13.566;2023-08-24T03:47:43;100941.66;;;20.30;74.17
5679;BME280;2862;52.560;13.566;2023-08-24T03:57:46;100931.81;;;20.29;73.54
5679;BME280;2862;52.560;13.566;2023-08-24T04:07:50;100933.41;;;20.38;73.86
5679;BME280;2862;52.560;13.566;2023-08-24T04:17:54;100934.75;;;20.42;74.20
5679;BME280;2862;52.560;13.566;2023-08-24T04:28:00;100941.00;;;20.43;73.78
5679;BME280;2862;52.560;13.566;2023-08-24T04:38:03;100937.38;;;20.65;72.37
5679;BME280;2862;52.560;13.566;2023-08-24T04:48:07;100938.03;;;20.67;71.83
5679;BME280;2862;52.560;13.566;2023-08-24T04:58:11;100940.06;;;20.95;70.47
5679;BME280;2862;52.560;13.566;2023-08-24T05:08:15;100954.72;;;21.30;68.86
5679;BME280;2862;52.560;13.566;2023-08-24T05:18:18;100943.25;;;21.56;67.58
5679;BME280;2862;52.560;13.566;2023-08-24T05:28:22;100937.50;;;21.66;65.54
5679;BME280;2862;52.560;13.566;2023-08-24T05:38:25;100945.56;;;24.53;56.93
5679;BME280;2862;52.560;13.566;2023-08-24T05:48:30;100940.94;;;28.30;45.11
5679;BME280;2862;52.560;13.566;2023-08-24T05:58:32;100933.72;;;29.00;41.33
5679;BME280;2862;52.560;13.566;2023-08-24T06:08:36;100926.31;;;33.76;32.28
5679;BME280;2862;52.560;13.566;2023-08-24T06:18:40;100921.13;;;34.91;29.71
5679;BME280;2862;52.560;13.566;2023-08-24T06:28:44;100937.06;;;37.46;26.14
5679;BME280;2862;52.560;13.566;2023-08-24T06:38:46;100925.81;;;38.17;25.20
5679;BME280;2862;52.560;13.566;2023-08-24T06:48:51;100921.50;;;37.59;25.08
5679;BME280;2862;52.560;13.566;2023-08-24T06:58:54;100934.16;;;37.33;25.90
5679;BME280;2862;52.560;13.566;2023-08-24T07:08:58;100942.22;;;36.73;26.95
5679;BME280;2862;52.560;13.566;2023-08-24T07:19:01;100949.50;;;38.80;24.52
5679;BME280;2862;52.560;13.566;2023-08-24T07:29:07;100947.13;;;35.64;27.88
5679;BME280;2862;52.560;13.566;2023-08-24T07:39:11;100952.13;;;34.53;28.75
5679;BME280;2862;52.560;13.566;2023-08-24T07:49:16;100945.75;;;34.22;29.84
5679;BME280;2862;52.560;13.566;2023-08-24T07:59:20;100939.06;;;34.28;29.66
5679;BME280;2862;52.560;13.566;2023-08-24T08:09:24;100939.91;;;34.29;30.15
5679;BME280;2862;52.560;13.566;2023-08-24T08:19:27;100944.34;;;33.64;30.58
5679;BME280;2862;52.560;13.566;2023-08-24T08:29:31;100922.56;;;32.94;31.96
5679;BME280;2862;52.560;13.566;2023-08-24T08:39:34;100919.53;;;30.93;35.01
5679;BME280;2862;52.560;13.566;2023-08-24T08:49:40;100909.28;;;28.92;37.95
5679;BME280;2862;52.560;13.566;2023-08-24T08:59:45;100902.88;;;27.27;41.71
5679;BME280;2862;52.560;13.566;2023-08-24T09:09:50;100905.06;;;26.88;43.04
5679;BME280;2862;52.560;13.566;2023-08-24T09:19:58;100901.50;;;28.48;39.81
5679;BME280;2862;52.560;13.566;2023-08-24T09:30:03;100880.47;;;28.94;38.36
5679;BME280;2862;52.560;13.566;2023-08-24T09:40:08;100870.66;;;28.87;40.31
5679;BME280;2862;52.560;13.566;2023-08-24T09:50:12;100859.44;;;29.33;38.02
5679;BME280;2862;52.560;13.566;2023-08-24T10:00:16;100843.31;;;29.25;37.28
5679;BME280;2862;52.560;13.566;2023-08-24T10:10:26;100846.44;;;29.00;37.70
5679;BME280;2862;52.560;13.566;2023-08-24T10:20:30;100838.63;;;29.09;37.40
5679;BME280;2862;52.560;13.566;2023-08-24T10:30:35;100837.09;;;28.61;36.37
5679;BME280;2862;52.560;13.566;2023-08-24T10:40:39;100829.88;;;28.72;39.10
5679;BME280;2862;52.560;13.566;2023-08-24T10:51:17;100841.78;;;28.89;37.10
5679;BME280;2862;52.560;13.566;2023-08-24T11:01:22;100833.69;;;29.11;36.90
5679;BME280;2862;52.560;13.566;2023-08-24T11:11:26;100811.25;;;29.02;37.03
5679;BME280;2862;52.560;13.566;2023-08-24T11:21:29;100788.88;;;28.70;38.02
5679;BME280;2862;52.560;13.566;2023-08-24T11:31:34;100777.94;;;28.47;37.73
5679;BME280;2862;52.560;13.566;2023-08-24T11:41:39;100757.69;;;28.81;39.16
5679;BME280;2862;52.560;13.566;2023-08-24T11:51:43;100748.88;;;28.79;38.41
5679;BME280;2862;52.560;13.566;2023-08-24T12:01:47;100738.97;;;28.67;39.27
5679;BME280;2862;52.560;13.566;2023-08-24T12:11:55;100723.16;;;28.17;38.77
5679;BME280;2862;52.560;13.566;2023-08-24T12:21:59;100731.41;;;28.17;40.00
5679;BME280;2862;52.560;13.566;2023-08-24T12:32:04;100705.09;;;28.49;39.79
5679;BME280;2862;52.560;13.566;2023-08-24T12:42:07;100697.09;;;28.48;39.24
5679;BME280;2862;52.560;13.566;2023-08-24T12:52:11;100671.06;;;28.39;38.71
5679;BME280;2862;52.560;13.566;2023-08-24T13:02:14;100652.84;;;28.83;38.58
5679;BME280;2862;52.560;13.566;2023-08-24T13:12:23;100652.34;;;28.52;39.70
5679;BME280;2862;52.560;13.566;2023-08-24T13:22:27;100623.56;;;28.77;39.48
5679;BME280;2862;52.560;13.566;2023-08-24T13:32:32;100611.91;;;29.03;39.23
5679;BME280;2862;52.560;13.566;2023-08-24T13:42:36;100600.91;;;29.42;38.93
5679;BME280;2862;52.560;13.566;2023-08-24T13:52:40;100592.34;;;29.22;38.29
5679;BME280;2862;52.560;13.566;2023-08-24T14:02:43;100574.13;;;29.38;37.87
5679;BME280;2862;52.560;13.566;2023-08-24T14:12:48;100558.50;;;29.04;38.06
5679;BME280;2862;52.560;13.566;2023-08-24T14:22:51;100529.88;;;29.05;38.24
5679;BME280;2862;52.560;13.566;2023-08-24T14:32:56;100531.75;;;29.00;39.14
5679;BME280;2862;52.560;13.566;2023-08-24T14:42:58;100546.16;;;29.07;38.90
5679;BME280;2862;52.560;13.566;2023-08-24T14:53:03;100566.34;;;28.96;38.34
5679;BME280;2862;52.560;13.566;2023-08-24T15:03:06;100571.75;;;29.07;38.36
5679;BME280;2862;52.560;13.566;2023-08-24T15:13:11;100564.66;;;29.12;38.84
5679;BME280;2862;52.560;13.566;2023-08-24T15:23:20;100565.56;;;29.17;38.08
5679;BME280;2862;52.560;13.566;2023-08-24T15:33:26;100554.41;;;28.90;39.34
5679;BME280;2862;52.560;13.566;2023-08-24T15:43:29;100545.38;;;29.12;39.07
5679;BME280;2862;52.560;13.566;2023-08-24T15:53:33;100515.56;;;29.03;39.54
5679;BME280;2862;52.560;13.566;2023-08-24T16:03:36;100502.53;;;28.99;39.59
5679;BME280;2862;52.560;13.566;2023-08-24T16:13:40;100501.72;;;28.81;39.86
5679;BME280;2862;52.560;13.566;2023-08-24T16:23:43;100500.59;;;28.61;39.46
5679;BME280;2862;52.560;13.566;2023-08-24T16:33:47;100492.25;;;28.55;40.08
5679;BME280;2862;52.560;13.566;2023-08-24T16:43:50;100464.47;;;28.35;41.51
5679;BME280;2862;52.560;13.566;2023-08-24T16:53:54;100468.50;;;28.16;41.66
5679;BME280;2862;52.560;13.566;2023-08-24T17:03:57;100472.69;;;28.01;43.61
5679;BME280;2862;52.560;13.566;2023-08-24T17:14:01;100472.31;;;27.81;43.41
5679;BME280;2862;52.560;13.566;2023-08-24T17:24:04;100478.03;;;27.51;44.06
5679;BME280;2862;52.560;13.566;2023-08-24T17:34:09;100471.13;;;27.20;44.14
5679;BME280;2862;52.560;13.566;2023-08-24T17:44:11;100451.69;;;27.10;43.31
5679;BME280;2862;52.560;13.566;2023-08-24T17:54:16;100439.50;;;27.06;42.52
5679;BME280;2862;52.560;13.566;2023-08-24T18:04:19;100445.56;;;26.79;44.50
5679;BME280;2862;52.560;13.566;2023-08-24T18:14:23;100439.59;;;26.59;46.34
5679;BME280;2862;52.560;13.566;2023-08-24T18:24:26;100444.72;;;26.43;47.49
5679;BME280;2862;52.560;13.566;2023-08-24T18:34:30;100435.06;;;26.29;47.74
5679;BME280;2862;52.560;13.566;2023-08-24T18:44:33;100414.41;;;26.15;48.31
5679;BME280;2862;52.560;13.566;2023-08-24T18:54:37;100409.56;;;26.05;48.64
5679;BME280;2862;52.560;13.566;2023-08-24T19:04:43;100400.13;;;25.89;49.36
5679;BME280;2862;52.560;13.566;2023-08-24T19:14:48;100397.06;;;25.67;50.30
5679;BME280;2862;52.560;13.566;2023-08-24T19:24:50;100375.97;;;25.56;51.14
5679;BME280;2862;52.560;13.566;2023-08-24T19:34:55;100369.50;;;25.39;52.27
5679;BME280;2862;52.560;13.566;2023-08-24T19:44:58;100355.25;;;25.07;53.58
5679;BME280;2862;52.560;13.566;2023-08-24T19:55:02;100347.91;;;24.89;54.35
5679;BME280;2862;52.560;13.566;2023-08-24T20:05:05;100340.91;;;24.75;55.46
5679;BME280;2862;52.560;13.566;2023-08-24T20:15:11;100319.28;;;24.36;57.96
5679;BME280;2862;52.560;13.566;2023-08-24T20:25:15;100328.59;;;24.29;58.90
5679;BME280;2862;52.560;13.566;2023-08-24T20:35:22;100314.94;;;24.10;60.14
5679;BME280;2862;52.560;13.566;2023-08-24T20:45:25;100289.34;;;23.87;61.12
5679;BME280;2862;52.560;13.566;2023-08-24T20:55:29;100267.03;;;23.71;61.91
5679;BME280;2862;52.560;13.566;2023-08-24T21:05:33;100248.84;;;23.33;62.56
5679;BME280;2862;52.560;13.566;2023-08-24T21:15:38;100239.06;;;23.26;63.35
5679;BME280;2862;52.560;13.566;2023-08-24T21:25:41;100245.94;;;23.35;62.78
5679;BME280;2862;52.560;13.566;2023-08-24T21:35:45;100250.84;;;23.45;62.60
5679;BME280;2862;52.560;13.566;2023-08-24T21:45:54;100249.19;;;23.44;62.35
5679;BME280;2862;52.560;13.566;2023-08-24T21:55:58;100240.09;;;23.50;61.82
5679;BME280;2862;52.560;13.566;2023-08-24T22:06:02;100255.47;;;23.44;60.41
5679;BME280;2862;52.560;13.566;2023-08-24T22:16:07;100239.41;;;23.36;60.52
5679;BME280;2862;52.560;13.566;2023-08-24T22:26:10;100224.47;;;23.39;60.30
5679;BME280;2862;52.560;13.566;2023-08-24T22:36:14;100216.91;;;23.16;61.61
5679;BME280;2862;52.560;13.566;2023-08-24T22:46:18;100217.44;;;22.99;62.22
5679;BME280;2862;52.560;13.566;2023-08-24T22:56:22;100219.69;;;23.09;61.34
5679;BME280;2862;52.560;13.566;2023-08-24T23:06:43;100209.84;;;23.08;61.44
5679;BME280;2862;52.560;13.566;2023-08-24T23:16:50;100217.06;;;23.21;60.07
5679;BME280;2862;52.560;13.566;2023-08-24T23:26:53;100194.88;;;23.17;59.99
5679;BME280;2862;52.560;13.566;2023-08-24T23:36:57;100216.09;;;23.33;59.48
5679;BME280;2862;52.560;13.566;2023-08-24T23:47:00;100224.88;;;23.42;59.41
5679;BME280;2862;52.560;13.566;2023-08-24T23:57:04;100220.63;;;23.46;59.29
